Cic Pride — H9SQ — position and weather

sailwx.info

Track history (hours):
 
Tides and Currents Weather Stations Pressure Air Temp Water Temp Dewpoint Dewpoint Depression Visibility Wind Speed Wind Dir Waves Ship Positions

Cic Pride

Last reported at 2017-Aug-11 02:24 UTC. Time now 2017-Aug-21 19:41 UTC.
Position N 28°03' E 033°27'.
Warning: this ship's position is 10 days out of date.

Length 289 m; draft 17.8 m.

Type: Cargo ship. MMSI: 351111000.

Date/timePositionNaut miles runAvg speedWind from/ knotsBaromVisibWave heightAir tempDewpointWater temp
2017-Aug-11 02:24N 28°03' E 033°27'812.7
2017-Aug-11 01:48N 28°08' E 033°20'912.6
2017-Aug-11 01:05N 28°15' E 033°13'199 6.2
2017-Aug-09 16:54N 31°28' E 032°19'  
2017-Aug-07 06:56N 34°57' E 020°12'612.3
2017-Aug-07 06:25N 34°59' E 020°05'512.3
2017-Aug-07 06:00N 35°01' E 019°59'612.4
2017-Aug-07 05:30N 35°03' E 019°52'612.5
2017-Aug-07 05:00N 35°05' E 019°44'612.4
2017-Aug-07 04:30N 35°07' E 019°37'712.2
2017-Aug-07 03:57N 35°09' E 019°29'1212.2
2017-Aug-07 02:57N 35°13' E 019°15'512.1
2017-Aug-07 02:30N 35°14' E 019°09'1612.2
2017-Aug-07 01:09N 35°20' E 018°50'412.3
2017-Aug-07 00:50N 35°21' E 018°45'1212.2
2017-Aug-06 23:49N 35°24' E 018°31'612.1
2017-Aug-06 23:20N 35°26' E 018°24'511.9
2017-Aug-06 22:54N 35°28' E 018°18'1811.8
2017-Aug-06 21:23N 35°33' E 017°57'12911.7
2017-Aug-06 10:18N 36°14' E 015°25'411.8
2017-Aug-06 10:00N 36°15' E 015°21'611.9
2017-Aug-06 09:30N 36°16' E 015°14'612.3
2017-Aug-06 09:00N 36°18' E 015°07'612.9
2017-Aug-06 08:30N 36°20' E 014°59'712.9
2017-Aug-06 08:00N 36°22' E 014°52'612.8
2017-Aug-06 07:30N 36°24' E 014°44'612.7
2017-Aug-06 07:00N 36°26' E 014°37'612.6
2017-Aug-06 06:31N 36°28' E 014°29'612.6
2017-Aug-06 06:00N 36°30' E 014°22'612.5
2017-Aug-06 05:30N 36°32' E 014°14'612.4
2017-Aug-06 05:00N 36°34' E 014°07'612.2
2017-Aug-06 04:30N 36°35' E 013°60'612.2
2017-Aug-06 04:00N 36°38' E 013°53'612.2
2017-Aug-06 03:30N 36°40' E 013°46'612.2
2017-Aug-06 03:00N 36°42' E 013°38'612.2
2017-Aug-06 02:30N 36°43' E 013°31'612.1
2017-Aug-06 02:01N 36°45' E 013°24'612.3
2017-Aug-06 01:30N 36°48' E 013°17'612.4
2017-Aug-06 01:00N 36°49' E 013°09'612.2
2017-Aug-06 00:30N 36°51' E 013°02'612.1
2017-Aug-06 00:00N 36°53' E 012°55'612.0
2017-Aug-05 23:30N 36°55' E 012°48'612.1
2017-Aug-05 23:00N 36°57' E 012°41'612.3
2017-Aug-05 22:30N 36°58' E 012°33'612.1
2017-Aug-05 22:00N 37°00' E 012°26'612.1
2017-Aug-05 21:31N 37°02' E 012°19'612.2
2017-Aug-05 21:00N 37°04' E 012°11'612.4
2017-Aug-05 20:30N 37°06' E 012°04'612.4
2017-Aug-05 20:01N 37°08' E 011°57'612.2
2017-Aug-05 19:30N 37°10' E 011°49'1612.1
2017-Aug-05 18:10N 37°15' E 011°30'1312.1
2017-Aug-05 17:04N 37°20' E 011°15'212.5
2017-Aug-05 16:56N 37°21' E 011°13'512.3
2017-Aug-05 16:30N 37°23' E 011°07'612.5
2017-Aug-05 16:00N 37°25' E 010°59'612.2
2017-Aug-05 15:30N 37°26' E 010°52'611.9
2017-Aug-05 14:58N 37°28' E 010°44'611.9
2017-Aug-05 14:30N 37°29' E 010°37'611.6
2017-Aug-05 13:59N 37°30' E 010°30'611.9
2017-Aug-05 13:29N 37°32' E 010°23'612.1
2017-Aug-05 12:59N 37°33' E 010°15'612.4
2017-Aug-05 12:30N 37°33' E 010°08'612.5
2017-Aug-05 12:00N 37°33' E 009°60'612.5
2017-Aug-05 11:30N 37°31' E 009°52'612.7
2017-Aug-05 11:00N 37°29' E 009°44'612.7
2017-Aug-05 10:30N 37°27' E 009°37'612.6
2017-Aug-05 10:00N 37°25' E 009°30'1212.6
2017-Aug-05 09:05N 37°21' E 009°15'112.6
2017-Aug-05 09:00N 37°21' E 009°14'612.5
2017-Aug-05 08:31N 37°19' E 009°07'612.5
2017-Aug-05 08:01N 37°17' E 008°59'1412.1
2017-Aug-05 06:51N 37°13' E 008°43'9212.3
2017-Aug-04 23:25N 37°14' E 006°48'3512.5
2017-Aug-04 20:36N 37°12' E 006°03'112.7
2017-Aug-04 20:31N 37°12' E 006°02'4512.5
2017-Aug-04 16:54N 37°10' E 005°06'512.3
2017-Aug-04 16:30N 37°09' E 004°59'612.4
2017-Aug-04 16:00N 37°09' E 004°52'612.2
2017-Aug-04 15:30N 37°09' E 004°44'612.3
2017-Aug-04 15:01N 37°08' E 004°36'1212.4
2017-Aug-04 14:00N 37°08' E 004°21'612.4
2017-Aug-04 13:30N 37°07' E 004°13'612.3
2017-Aug-04 13:00N 37°07' E 004°05'612.2
2017-Aug-04 12:30N 37°07' E 003°58'612.2
2017-Aug-04 12:01N 37°06' E 003°50'612.2
2017-Aug-04 11:30N 37°05' E 003°42'612.2
2017-Aug-04 11:01N 37°04' E 003°35'612.1
2017-Aug-04 10:30N 37°04' E 003°27'612.0
2017-Aug-04 10:01N 37°02' E 003°20'612.2
2017-Aug-04 09:31N 37°01' E 003°13'612.3
2017-Aug-04 09:00N 37°00' E 003°05'612.4
2017-Aug-04 08:31N 36°59' E 002°57'612.4
2017-Aug-04 08:01N 36°58' E 002°50'612.3
2017-Aug-04 07:31N 36°57' E 002°42'612.3
2017-Aug-04 07:00N 36°56' E 002°34'612.2
2017-Aug-04 06:29N 36°55' E 002°27'612.0
2017-Aug-04 06:00N 36°54' E 002°20'612.0
2017-Aug-04 05:30N 36°53' E 002°12'612.1
2017-Aug-04 05:01N 36°52' E 002°05'612.1
2017-Aug-04 04:31N 36°51' E 001°57'612.1
2017-Aug-04 04:00N 36°50' E 001°50'612.0
2017-Aug-04 03:31N 36°49' E 001°42'611.7
2017-Aug-04 03:00N 36°48' E 001°35'1111.7
2017-Aug-04 02:03N 36°46' E 001°21'612.1
2017-Aug-04 01:33N 36°45' E 001°14'612.3
2017-Aug-04 01:04N 36°44' E 001°07'112.4
2017-Aug-04 00:59N 36°44' E 001°05'612.7
2017-Aug-04 00:30N 36°43' E 000°58'712.9
2017-Aug-04 00:00N 36°42' E 000°50'612.9
2017-Aug-03 23:31N 36°41' E 000°42'612.8
2017-Aug-03 23:00N 36°40' E 000°34'612.8
2017-Aug-03 22:30N 36°39' E 000°26'612.8
2017-Aug-03 22:01N 36°38' E 000°18'2812.4
2017-Aug-03 19:46N 36°33' W 000°16'312.3
2017-Aug-03 19:30N 36°33' W 000°20'2712.1
2017-Aug-03 17:17N 36°28' W 000°52'712.1
2017-Aug-03 16:44N 36°27' W 001°01'20112.5
2017-Aug-03 00:37N 36°00' W 005°08'214.1
2017-Aug-03 00:30N 35°60' W 005°10'714.3
2017-Aug-03 00:00N 35°59' W 005°19'713.8
2017-Aug-02 23:30N 35°57' W 005°27'4512.2
2017-Aug-02 19:50N 35°53' W 006°22'1312.5
2017-Aug-02 18:46N 35°56' W 006°38'3812.5
2017-Aug-02 15:44N 36°07' W 007°23'312.1
2017-Aug-02 15:29N 36°08' W 007°27'612.5
2017-Aug-02 15:00N 36°10' W 007°34'1912.6
2017-Aug-02 13:30N 36°15' W 007°56'612.5
2017-Aug-02 13:00N 36°17' W 008°03'2112.3
2017-Aug-02 11:18N 36°23' W 008°28'1412.0
2017-Aug-02 10:09N 36°26' W 008°45'212.0
2017-Aug-02 10:00N 36°27' W 008°47'612.0
2017-Aug-02 09:30N 36°29' W 008°54'612.0
2017-Aug-02 09:00N 36°30' W 009°01'1411.7
2017-Aug-02 07:46N 36°35' W 009°18'411.7
2017-Aug-02 07:27N 36°38' W 009°22'611.8
2017-Aug-02 06:59N 36°42' W 009°26'611.7
2017-Aug-02 06:30N 36°46' W 009°31'611.5
2017-Aug-02 05:59N 36°51' W 009°34'612.1
2017-Aug-02 05:30N 36°57' W 009°36'4612.1
2017-Aug-02 01:41N 37°42' W 009°51'  
Track history (hours):
 
Tides and Currents Weather Stations Pressure Air Temp Water Temp Dewpoint Dewpoint Depression Visibility Wind Speed Wind Dir Waves Ship Positions

Cic Pride

Last reported at 2017-Aug-11 02:24 UTC. Time now 2017-Aug-21 19:41 UTC.
Position N 28°03' E 033°27'.
Warning: this ship's position is 10 days out of date.

Length 289 m; draft 17.8 m.

Type: Cargo ship. MMSI: 351111000.

Date/timePositionNaut miles runAvg speedWind from/ knotsBaromVisibWave heightAir tempDewpointWater temp
2017-Aug-11 02:24N 28°03' E 033°27'812.7
2017-Aug-11 01:48N 28°08' E 033°20'912.6
2017-Aug-11 01:05N 28°15' E 033°13'199 6.2
2017-Aug-09 16:54N 31°28' E 032°19'  
2017-Aug-07 06:56N 34°57' E 020°12'612.3
2017-Aug-07 06:25N 34°59' E 020°05'512.3
2017-Aug-07 06:00N 35°01' E 019°59'612.4
2017-Aug-07 05:30N 35°03' E 019°52'612.5
2017-Aug-07 05:00N 35°05' E 019°44'612.4
2017-Aug-07 04:30N 35°07' E 019°37'712.2
2017-Aug-07 03:57N 35°09' E 019°29'1212.2
2017-Aug-07 02:57N 35°13' E 019°15'512.1
2017-Aug-07 02:30N 35°14' E 019°09'1612.2
2017-Aug-07 01:09N 35°20' E 018°50'412.3
2017-Aug-07 00:50N 35°21' E 018°45'1212.2
2017-Aug-06 23:49N 35°24' E 018°31'612.1
2017-Aug-06 23:20N 35°26' E 018°24'511.9
2017-Aug-06 22:54N 35°28' E 018°18'1811.8
2017-Aug-06 21:23N 35°33' E 017°57'12911.7
2017-Aug-06 10:18N 36°14' E 015°25'411.8
2017-Aug-06 10:00N 36°15' E 015°21'611.9
2017-Aug-06 09:30N 36°16' E 015°14'612.3
2017-Aug-06 09:00N 36°18' E 015°07'612.9
2017-Aug-06 08:30N 36°20' E 014°59'712.9
2017-Aug-06 08:00N 36°22' E 014°52'612.8
2017-Aug-06 07:30N 36°24' E 014°44'612.7
2017-Aug-06 07:00N 36°26' E 014°37'612.6
2017-Aug-06 06:31N 36°28' E 014°29'612.6
2017-Aug-06 06:00N 36°30' E 014°22'612.5
2017-Aug-06 05:30N 36°32' E 014°14'612.4
2017-Aug-06 05:00N 36°34' E 014°07'612.2
2017-Aug-06 04:30N 36°35' E 013°60'612.2
2017-Aug-06 04:00N 36°38' E 013°53'612.2
2017-Aug-06 03:30N 36°40' E 013°46'612.2
2017-Aug-06 03:00N 36°42' E 013°38'612.2
2017-Aug-06 02:30N 36°43' E 013°31'612.1
2017-Aug-06 02:01N 36°45' E 013°24'612.3
2017-Aug-06 01:30N 36°48' E 013°17'612.4
2017-Aug-06 01:00N 36°49' E 013°09'612.2
2017-Aug-06 00:30N 36°51' E 013°02'612.1
2017-Aug-06 00:00N 36°53' E 012°55'612.0
2017-Aug-05 23:30N 36°55' E 012°48'612.1
2017-Aug-05 23:00N 36°57' E 012°41'612.3
2017-Aug-05 22:30N 36°58' E 012°33'612.1
2017-Aug-05 22:00N 37°00' E 012°26'612.1
2017-Aug-05 21:31N 37°02' E 012°19'612.2
2017-Aug-05 21:00N 37°04' E 012°11'612.4
2017-Aug-05 20:30N 37°06' E 012°04'612.4
2017-Aug-05 20:01N 37°08' E 011°57'612.2
2017-Aug-05 19:30N 37°10' E 011°49'1612.1
2017-Aug-05 18:10N 37°15' E 011°30'1312.1
2017-Aug-05 17:04N 37°20' E 011°15'212.5
2017-Aug-05 16:56N 37°21' E 011°13'512.3
2017-Aug-05 16:30N 37°23' E 011°07'612.5
2017-Aug-05 16:00N 37°25' E 010°59'612.2
2017-Aug-05 15:30N 37°26' E 010°52'611.9
2017-Aug-05 14:58N 37°28' E 010°44'611.9
2017-Aug-05 14:30N 37°29' E 010°37'611.6
2017-Aug-05 13:59N 37°30' E 010°30'611.9
2017-Aug-05 13:29N 37°32' E 010°23'612.1
2017-Aug-05 12:59N 37°33' E 010°15'612.4
2017-Aug-05 12:30N 37°33' E 010°08'612.5
2017-Aug-05 12:00N 37°33' E 009°60'612.5
2017-Aug-05 11:30N 37°31' E 009°52'612.7
2017-Aug-05 11:00N 37°29' E 009°44'612.7
2017-Aug-05 10:30N 37°27' E 009°37'612.6
2017-Aug-05 10:00N 37°25' E 009°30'1212.6
2017-Aug-05 09:05N 37°21' E 009°15'112.6
2017-Aug-05 09:00N 37°21' E 009°14'612.5
2017-Aug-05 08:31N 37°19' E 009°07'612.5
2017-Aug-05 08:01N 37°17' E 008°59'1412.1
2017-Aug-05 06:51N 37°13' E 008°43'9212.3
2017-Aug-04 23:25N 37°14' E 006°48'3512.5
2017-Aug-04 20:36N 37°12' E 006°03'112.7
2017-Aug-04 20:31N 37°12' E 006°02'4512.5
2017-Aug-04 16:54N 37°10' E 005°06'512.3
2017-Aug-04 16:30N 37°09' E 004°59'612.4
2017-Aug-04 16:00N 37°09' E 004°52'612.2
2017-Aug-04 15:30N 37°09' E 004°44'612.3
2017-Aug-04 15:01N 37°08' E 004°36'1212.4
2017-Aug-04 14:00N 37°08' E 004°21'612.4
2017-Aug-04 13:30N 37°07' E 004°13'612.3
2017-Aug-04 13:00N 37°07' E 004°05'612.2
2017-Aug-04 12:30N 37°07' E 003°58'612.2
2017-Aug-04 12:01N 37°06' E 003°50'612.2
2017-Aug-04 11:30N 37°05' E 003°42'612.2
2017-Aug-04 11:01N 37°04' E 003°35'612.1
2017-Aug-04 10:30N 37°04' E 003°27'612.0
2017-Aug-04 10:01N 37°02' E 003°20'612.2
2017-Aug-04 09:31N 37°01' E 003°13'612.3
2017-Aug-04 09:00N 37°00' E 003°05'612.4
2017-Aug-04 08:31N 36°59' E 002°57'612.4
2017-Aug-04 08:01N 36°58' E 002°50'612.3
2017-Aug-04 07:31N 36°57' E 002°42'612.3
2017-Aug-04 07:00N 36°56' E 002°34'612.2
2017-Aug-04 06:29N 36°55' E 002°27'612.0
2017-Aug-04 06:00N 36°54' E 002°20'612.0
2017-Aug-04 05:30N 36°53' E 002°12'612.1
2017-Aug-04 05:01N 36°52' E 002°05'612.1
2017-Aug-04 04:31N 36°51' E 001°57'612.1
2017-Aug-04 04:00N 36°50' E 001°50'612.0
2017-Aug-04 03:31N 36°49' E 001°42'611.7
2017-Aug-04 03:00N 36°48' E 001°35'1111.7
2017-Aug-04 02:03N 36°46' E 001°21'612.1
2017-Aug-04 01:33N 36°45' E 001°14'612.3
2017-Aug-04 01:04N 36°44' E 001°07'112.4
2017-Aug-04 00:59N 36°44' E 001°05'612.7
2017-Aug-04 00:30N 36°43' E 000°58'712.9
2017-Aug-04 00:00N 36°42' E 000°50'612.9
2017-Aug-03 23:31N 36°41' E 000°42'612.8
2017-Aug-03 23:00N 36°40' E 000°34'612.8
2017-Aug-03 22:30N 36°39' E 000°26'612.8
2017-Aug-03 22:01N 36°38' E 000°18'2812.4
2017-Aug-03 19:46N 36°33' W 000°16'312.3
2017-Aug-03 19:30N 36°33' W 000°20'2712.1
2017-Aug-03 17:17N 36°28' W 000°52'712.1
2017-Aug-03 16:44N 36°27' W 001°01'20112.5
2017-Aug-03 00:37N 36°00' W 005°08'214.1
2017-Aug-03 00:30N 35°60' W 005°10'714.3
2017-Aug-03 00:00N 35°59' W 005°19'713.8
2017-Aug-02 23:30N 35°57' W 005°27'4512.2
2017-Aug-02 19:50N 35°53' W 006°22'1312.5
2017-Aug-02 18:46N 35°56' W 006°38'3812.5
2017-Aug-02 15:44N 36°07' W 007°23'312.1
2017-Aug-02 15:29N 36°08' W 007°27'612.5
2017-Aug-02 15:00N 36°10' W 007°34'1912.6
2017-Aug-02 13:30N 36°15' W 007°56'612.5
2017-Aug-02 13:00N 36°17' W 008°03'2112.3
2017-Aug-02 11:18N 36°23' W 008°28'1412.0
2017-Aug-02 10:09N 36°26' W 008°45'212.0
2017-Aug-02 10:00N 36°27' W 008°47'612.0
2017-Aug-02 09:30N 36°29' W 008°54'612.0
2017-Aug-02 09:00N 36°30' W 009°01'1411.7
2017-Aug-02 07:46N 36°35' W 009°18'411.7
2017-Aug-02 07:27N 36°38' W 009°22'611.8
2017-Aug-02 06:59N 36°42' W 009°26'611.7
2017-Aug-02 06:30N 36°46' W 009°31'611.5
2017-Aug-02 05:59N 36°51' W 009°34'612.1
2017-Aug-02 05:30N 36°57' W 009°36'4612.1
2017-Aug-02 01:41N 37°42' W 009°51'  

Dump ship's entire track history